Terminal Aerodrome Forecast
Issued by NWS

Current Version | Previous Version | Graphics & Text | Print | Product List | Glossary On
Versions: 1 2 3 4 5 6 7 8 9 10 11 12 13 14 15 16 17 18 19 20 21 22 23 24 25 26 27 28 29 30
000
FTUS41 KRLX 191700
TAFCKB
TAF
KCKB 191730Z 1918/2018 27004KT 6SM BR SCT015 BKN022
     FM192200 VRB03KT 4SM BR VCTS BKN025CB
     FM200500 00000KT 4SM -SHRA BR BKN015 OVC025
     FM200900 00000KT 1SM BR OVC001
     FM201400 20004KT 5SM BR BKN025=

USA.gov is the U.S. government's official web portal to all federal, state and local government web resources and services.